Weather at Roland Garros Airport

Public forecast

Using degrees Celsius for public forecast. Weather courtesy of forecast.io.

Current aviation weather report (METAR) for Roland Garros Airport

2024/07/23 12:00 (retrieved 32 minutes ago)

FMEE 231200Z AUTO 09011KT 9999 BKN032 BKN039 OVC058 24/18 Q1022 NOSIG

Aviation forecast (TAF) for Roland Garros Airport

2024/07/23 12:00 (retrieved 32 minutes ago)

TAF FMEE 231100Z 2312/2418 10012KT 9999 FEW030 BKN050